sensor_id;sensor_type;location;lat;lon;timestamp;temperature;humidity
42913;DHT22;50720;54.324;18.558;2023-05-23T00:01:06;11.60;99.90
42913;DHT22;50720;54.324;18.558;2023-05-23T00:03:36;11.60;99.90
42913;DHT22;50720;54.324;18.558;2023-05-23T00:06:07;11.50;99.90
42913;DHT22;50720;54.324;18.558;2023-05-23T00:08:37;11.40;99.90
42913;DHT22;50720;54.324;18.558;2023-05-23T00:11:06;11.40;99.90
42913;DHT22;50720;54.324;18.558;2023-05-23T00:13:36;11.40;99.90
42913;DHT22;50720;54.324;18.558;2023-05-23T00:16:07;11.40;99.90
42913;DHT22;50720;54.324;18.558;2023-05-23T00:18:37;11.40;99.90
42913;DHT22;50720;54.324;18.558;2023-05-23T00:21:11;11.30;99.90
42913;DHT22;50720;54.324;18.558;2023-05-23T00:23:41;11.30;99.90
42913;DHT22;50720;54.324;18.558;2023-05-23T00:26:11;11.20;99.90
42913;DHT22;50720;54.324;18.558;2023-05-23T00:28:41;11.20;99.90
42913;DHT22;50720;54.324;18.558;2023-05-23T00:31:10;11.10;99.90
42913;DHT22;50720;54.324;18.558;2023-05-23T00:33:41;11.10;99.90
42913;DHT22;50720;54.324;18.558;2023-05-23T00:36:11;11.10;99.90
42913;DHT22;50720;54.324;18.558;2023-05-23T00:38:41;11.00;99.90
42913;DHT22;50720;54.324;18.558;2023-05-23T00:41:12;11.00;99.90
42913;DHT22;50720;54.324;18.558;2023-05-23T00:43:42;11.00;99.90
42913;DHT22;50720;54.324;18.558;2023-05-23T00:46:12;11.00;99.90
42913;DHT22;50720;54.324;18.558;2023-05-23T00:48:42;11.00;99.90
42913;DHT22;50720;54.324;18.558;2023-05-23T00:51:13;11.10;99.90
42913;DHT22;50720;54.324;18.558;2023-05-23T00:53:43;11.00;99.90
42913;DHT22;50720;54.324;18.558;2023-05-23T00:56:13;10.90;99.90
42913;DHT22;50720;54.324;18.558;2023-05-23T00:58:43;10.90;99.90
42913;DHT22;50720;54.324;18.558;2023-05-23T01:01:13;10.90;99.90
42913;DHT22;50720;54.324;18.558;2023-05-23T01:03:44;10.90;99.90
42913;DHT22;50720;54.324;18.558;2023-05-23T01:06:16;10.90;99.90
42913;DHT22;50720;54.324;18.558;2023-05-23T01:08:46;10.80;99.90
42913;DHT22;50720;54.324;18.558;2023-05-23T01:11:21;10.80;99.90
42913;DHT22;50720;54.324;18.558;2023-05-23T01:13:57;10.80;99.90
42913;DHT22;50720;54.324;18.558;2023-05-23T01:16:34;10.70;99.90
42913;DHT22;50720;54.324;18.558;2023-05-23T01:19:20;10.60;99.90
42913;DHT22;50720;54.324;18.558;2023-05-23T01:21:58;10.60;99.90
42913;DHT22;50720;54.324;18.558;2023-05-23T01:24:34;10.70;99.90
42913;DHT22;50720;54.324;18.558;2023-05-23T01:27:23;10.60;99.90
42913;DHT22;50720;54.324;18.558;2023-05-23T01:30:00;10.60;99.90
42913;DHT22;50720;54.324;18.558;2023-05-23T01:32:34;10.50;99.90
42913;DHT22;50720;54.324;18.558;2023-05-23T01:35:06;10.50;99.90
42913;DHT22;50720;54.324;18.558;2023-05-23T01:37:36;10.40;99.90
42913;DHT22;50720;54.324;18.558;2023-05-23T01:40:07;10.50;99.90
42913;DHT22;50720;54.324;18.558;2023-05-23T01:42:37;10.40;99.90
42913;DHT22;50720;54.324;18.558;2023-05-23T01:45:10;10.40;99.90
42913;DHT22;50720;54.324;18.558;2023-05-23T01:47:40;10.30;99.90
42913;DHT22;50720;54.324;18.558;2023-05-23T01:50:11;10.30;99.90
42913;DHT22;50720;54.324;18.558;2023-05-23T01:52:41;10.30;99.90
42913;DHT22;50720;54.324;18.558;2023-05-23T01:55:26;10.30;99.90
42913;DHT22;50720;54.324;18.558;2023-05-23T01:57:56;10.30;99.90
42913;DHT22;50720;54.324;18.558;2023-05-23T02:00:28;10.20;99.90
42913;DHT22;50720;54.324;18.558;2023-05-23T02:02:58;10.20;99.90
42913;DHT22;50720;54.324;18.558;2023-05-23T02:05:28;10.10;99.90
42913;DHT22;50720;54.324;18.558;2023-05-23T02:07:58;10.20;99.90
42913;DHT22;50720;54.324;18.558;2023-05-23T02:10:28;10.20;99.90
42913;DHT22;50720;54.324;18.558;2023-05-23T02:12:57;10.10;99.90
42913;DHT22;50720;54.324;18.558;2023-05-23T02:15:28;10.10;99.90
42913;DHT22;50720;54.324;18.558;2023-05-23T02:17:58;10.10;99.90
42913;DHT22;50720;54.324;18.558;2023-05-23T02:20:30;10.10;99.90
42913;DHT22;50720;54.324;18.558;2023-05-23T02:22:59;10.10;99.90
42913;DHT22;50720;54.324;18.558;2023-05-23T02:25:29;10.10;99.90
42913;DHT22;50720;54.324;18.558;2023-05-23T02:27:59;10.10;99.90
42913;DHT22;50720;54.324;18.558;2023-05-23T02:30:30;10.10;99.90
42913;DHT22;50720;54.324;18.558;2023-05-23T02:33:04;10.10;99.90
42913;DHT22;50720;54.324;18.558;2023-05-23T02:35:33;10.10;99.90
42913;DHT22;50720;54.324;18.558;2023-05-23T02:38:03;10.10;99.90
42913;DHT22;50720;54.324;18.558;2023-05-23T02:40:32;10.10;99.90
42913;DHT22;50720;54.324;18.558;2023-05-23T02:43:02;10.10;99.90
42913;DHT22;50720;54.324;18.558;2023-05-23T02:45:33;10.10;99.90
42913;DHT22;50720;54.324;18.558;2023-05-23T02:48:03;10.10;99.90
42913;DHT22;50720;54.324;18.558;2023-05-23T02:50:33;10.00;99.90
42913;DHT22;50720;54.324;18.558;2023-05-23T02:53:02;10.10;99.90
42913;DHT22;50720;54.324;18.558;2023-05-23T02:55:32;10.10;99.90
42913;DHT22;50720;54.324;18.558;2023-05-23T02:58:02;10.20;99.90
42913;DHT22;50720;54.324;18.558;2023-05-23T03:00:35;10.40;99.90
42913;DHT22;50720;54.324;18.558;2023-05-23T03:03:04;10.30;99.90
42913;DHT22;50720;54.324;18.558;2023-05-23T03:05:34;10.40;99.90
42913;DHT22;50720;54.324;18.558;2023-05-23T03:08:04;10.40;99.90
42913;DHT22;50720;54.324;18.558;2023-05-23T03:10:34;10.50;99.90
42913;DHT22;50720;54.324;18.558;2023-05-23T03:13:03;10.50;99.90
42913;DHT22;50720;54.324;18.558;2023-05-23T03:15:34;10.60;99.90
42913;DHT22;50720;54.324;18.558;2023-05-23T03:18:03;10.60;99.90
42913;DHT22;50720;54.324;18.558;2023-05-23T03:20:33;10.70;99.90
42913;DHT22;50720;54.324;18.558;2023-05-23T03:23:02;10.80;99.90
42913;DHT22;50720;54.324;18.558;2023-05-23T03:25:33;10.90;99.90
42913;DHT22;50720;54.324;18.558;2023-05-23T03:28:03;11.00;99.90
42913;DHT22;50720;54.324;18.558;2023-05-23T03:30:34;11.10;99.90
42913;DHT22;50720;54.324;18.558;2023-05-23T03:33:04;11.10;99.90
42913;DHT22;50720;54.324;18.558;2023-05-23T03:35:34;11.30;99.90
42913;DHT22;50720;54.324;18.558;2023-05-23T03:38:03;11.40;99.90
42913;DHT22;50720;54.324;18.558;2023-05-23T03:40:34;11.50;99.90
42913;DHT22;50720;54.324;18.558;2023-05-23T03:43:04;11.50;99.90
42913;DHT22;50720;54.324;18.558;2023-05-23T03:45:35;11.60;99.90
42913;DHT22;50720;54.324;18.558;2023-05-23T03:48:06;11.70;99.90
42913;DHT22;50720;54.324;18.558;2023-05-23T03:50:36;11.80;99.90
42913;DHT22;50720;54.324;18.558;2023-05-23T03:53:05;11.90;99.90
42913;DHT22;50720;54.324;18.558;2023-05-23T03:55:35;12.10;99.90
42913;DHT22;50720;54.324;18.558;2023-05-23T03:58:05;12.20;99.90
42913;DHT22;50720;54.324;18.558;2023-05-23T04:00:36;12.30;99.90
42913;DHT22;50720;54.324;18.558;2023-05-23T04:03:05;12.50;99.90
42913;DHT22;50720;54.324;18.558;2023-05-23T04:05:36;12.60;99.90
42913;DHT22;50720;54.324;18.558;2023-05-23T04:08:06;12.70;99.90
42913;DHT22;50720;54.324;18.558;2023-05-23T04:10:36;12.80;99.90
42913;DHT22;50720;54.324;18.558;2023-05-23T04:13:05;13.00;99.90
42913;DHT22;50720;54.324;18.558;2023-05-23T04:15:38;13.10;99.90
42913;DHT22;50720;54.324;18.558;2023-05-23T04:18:08;13.10;99.90
42913;DHT22;50720;54.324;18.558;2023-05-23T04:20:38;13.30;99.90
42913;DHT22;50720;54.324;18.558;2023-05-23T04:23:07;13.40;99.90
42913;DHT22;50720;54.324;18.558;2023-05-23T04:25:38;13.50;99.90
42913;DHT22;50720;54.324;18.558;2023-05-23T04:28:08;13.60;99.90
42913;DHT22;50720;54.324;18.558;2023-05-23T04:30:39;13.60;99.90
42913;DHT22;50720;54.324;18.558;2023-05-23T04:33:09;13.80;99.90
42913;DHT22;50720;54.324;18.558;2023-05-23T04:35:39;13.90;99.90
42913;DHT22;50720;54.324;18.558;2023-05-23T04:38:08;14.00;99.90
42913;DHT22;50720;54.324;18.558;2023-05-23T04:40:40;14.00;99.90
42913;DHT22;50720;54.324;18.558;2023-05-23T04:43:10;14.10;99.90
42913;DHT22;50720;54.324;18.558;2023-05-23T04:45:42;14.30;99.90
42913;DHT22;50720;54.324;18.558;2023-05-23T04:48:12;14.40;99.90
42913;DHT22;50720;54.324;18.558;2023-05-23T04:50:44;14.60;99.90
42913;DHT22;50720;54.324;18.558;2023-05-23T04:53:15;14.70;99.90
42913;DHT22;50720;54.324;18.558;2023-05-23T04:55:45;14.90;99.90
42913;DHT22;50720;54.324;18.558;2023-05-23T04:58:14;15.00;99.90
42913;DHT22;50720;54.324;18.558;2023-05-23T05:00:46;15.10;99.90
42913;DHT22;50720;54.324;18.558;2023-05-23T05:03:15;15.20;99.90
42913;DHT22;50720;54.324;18.558;2023-05-23T05:05:45;15.40;99.90
42913;DHT22;50720;54.324;18.558;2023-05-23T05:08:14;15.60;99.90
42913;DHT22;50720;54.324;18.558;2023-05-23T05:10:47;15.80;99.90
42913;DHT22;50720;54.324;18.558;2023-05-23T05:13:17;16.00;99.90
42913;DHT22;50720;54.324;18.558;2023-05-23T05:15:48;16.10;99.90
42913;DHT22;50720;54.324;18.558;2023-05-23T05:18:19;16.30;99.90
42913;DHT22;50720;54.324;18.558;2023-05-23T05:20:49;16.40;99.90
42913;DHT22;50720;54.324;18.558;2023-05-23T05:23:18;16.60;99.90
42913;DHT22;50720;54.324;18.558;2023-05-23T05:25:48;16.70;99.90
42913;DHT22;50720;54.324;18.558;2023-05-23T05:28:17;16.80;99.90
42913;DHT22;50720;54.324;18.558;2023-05-23T05:30:50;16.90;99.90
42913;DHT22;50720;54.324;18.558;2023-05-23T05:33:21;17.10;99.90
42913;DHT22;50720;54.324;18.558;2023-05-23T05:35:51;17.20;99.90
42913;DHT22;50720;54.324;18.558;2023-05-23T05:38:20;17.30;99.90
42913;DHT22;50720;54.324;18.558;2023-05-23T05:40:50;17.50;99.90
42913;DHT22;50720;54.324;18.558;2023-05-23T05:43:19;17.60;99.90
42913;DHT22;50720;54.324;18.558;2023-05-23T05:45:50;17.70;99.90
42913;DHT22;50720;54.324;18.558;2023-05-23T05:48:20;17.90;99.90
42913;DHT22;50720;54.324;18.558;2023-05-23T05:50:50;18.00;99.90
42913;DHT22;50720;54.324;18.558;2023-05-23T05:53:19;18.30;99.90
42913;DHT22;50720;54.324;18.558;2023-05-23T05:55:49;18.50;99.90
42913;DHT22;50720;54.324;18.558;2023-05-23T05:58:18;18.70;99.90
42913;DHT22;50720;54.324;18.558;2023-05-23T06:00:49;19.00;99.90
42913;DHT22;50720;54.324;18.558;2023-05-23T06:03:20;19.00;99.90
42913;DHT22;50720;54.324;18.558;2023-05-23T06:05:50;19.00;99.90
42913;DHT22;50720;54.324;18.558;2023-05-23T06:08:21;19.10;99.90
42913;DHT22;50720;54.324;18.558;2023-05-23T06:10:51;19.30;99.90
42913;DHT22;50720;54.324;18.558;2023-05-23T06:13:20;19.40;99.90
42913;DHT22;50720;54.324;18.558;2023-05-23T06:15:51;19.40;99.90
42913;DHT22;50720;54.324;18.558;2023-05-23T06:18:21;19.40;99.90
42913;DHT22;50720;54.324;18.558;2023-05-23T06:20:51;19.50;99.90
42913;DHT22;50720;54.324;18.558;2023-05-23T06:23:20;19.80;99.90
42913;DHT22;50720;54.324;18.558;2023-05-23T06:25:49;19.90;99.90
42913;DHT22;50720;54.324;18.558;2023-05-23T06:28:19;19.90;99.90
42913;DHT22;50720;54.324;18.558;2023-05-23T06:30:50;19.80;99.90
42913;DHT22;50720;54.324;18.558;2023-05-23T06:33:20;19.70;99.90
42913;DHT22;50720;54.324;18.558;2023-05-23T06:35:49;19.60;99.90
42913;DHT22;50720;54.324;18.558;2023-05-23T06:38:19;19.60;99.90
42913;DHT22;50720;54.324;18.558;2023-05-23T06:40:48;19.70;99.90
42913;DHT22;50720;54.324;18.558;2023-05-23T06:43:18;19.70;99.90
42913;DHT22;50720;54.324;18.558;2023-05-23T06:45:48;19.80;99.90
42913;DHT22;50720;54.324;18.558;2023-05-23T06:48:19;19.90;99.90
42913;DHT22;50720;54.324;18.558;2023-05-23T06:50:49;20.00;99.90
42913;DHT22;50720;54.324;18.558;2023-05-23T06:53:19;20.30;99.90
42913;DHT22;50720;54.324;18.558;2023-05-23T06:55:48;20.50;99.90
42913;DHT22;50720;54.324;18.558;2023-05-23T06:58:18;20.50;99.90
42913;DHT22;50720;54.324;18.558;2023-05-23T07:00:47;20.70;99.90
42913;DHT22;50720;54.324;18.558;2023-05-23T07:03:18;20.90;99.90
42913;DHT22;50720;54.324;18.558;2023-05-23T07:05:48;21.10;99.90
42913;DHT22;50720;54.324;18.558;2023-05-23T07:08:18;21.20;99.90
42913;DHT22;50720;54.324;18.558;2023-05-23T07:10:48;21.40;99.90
42913;DHT22;50720;54.324;18.558;2023-05-23T07:13:17;21.40;99.90
42913;DHT22;50720;54.324;18.558;2023-05-23T07:15:47;21.50;99.90
42913;DHT22;50720;54.324;18.558;2023-05-23T07:18:16;21.60;99.90
42913;DHT22;50720;54.324;18.558;2023-05-23T07:20:48;21.60;99.90
42913;DHT22;50720;54.324;18.558;2023-05-23T07:23:17;21.80;99.90
42913;DHT22;50720;54.324;18.558;2023-05-23T07:25:47;22.00;99.90
42913;DHT22;50720;54.324;18.558;2023-05-23T07:28:29;21.90;99.90
42913;DHT22;50720;54.324;18.558;2023-05-23T07:30:59;21.70;99.90
42913;DHT22;50720;54.324;18.558;2023-05-23T07:33:28;21.80;99.90
42913;DHT22;50720;54.324;18.558;2023-05-23T07:35:59;21.90;99.90
42913;DHT22;50720;54.324;18.558;2023-05-23T07:38:28;21.70;99.90
42913;DHT22;50720;54.324;18.558;2023-05-23T07:40:59;21.80;99.90
42913;DHT22;50720;54.324;18.558;2023-05-23T07:43:39;21.70;99.90
42913;DHT22;50720;54.324;18.558;2023-05-23T07:46:09;21.90;99.90
42913;DHT22;50720;54.324;18.558;2023-05-23T07:48:38;22.10;99.90
42913;DHT22;50720;54.324;18.558;2023-05-23T07:51:09;22.20;99.90
42913;DHT22;50720;54.324;18.558;2023-05-23T07:53:39;22.20;99.90
42913;DHT22;50720;54.324;18.558;2023-05-23T07:56:08;22.20;99.90
42913;DHT22;50720;54.324;18.558;2023-05-23T07:58:38;22.20;99.90
42913;DHT22;50720;54.324;18.558;2023-05-23T08:01:08;22.20;99.80
42913;DHT22;50720;54.324;18.558;2023-05-23T08:03:37;22.30;98.50
42913;DHT22;50720;54.324;18.558;2023-05-23T08:06:09;22.40;99.70
42913;DHT22;50720;54.324;18.558;2023-05-23T08:08:38;22.60;97.70
42913;DHT22;50720;54.324;18.558;2023-05-23T08:11:08;22.80;98.40
42913;DHT22;50720;54.324;18.558;2023-05-23T08:13:37;22.80;96.90
42913;DHT22;50720;54.324;18.558;2023-05-23T08:16:07;23.00;96.90
42913;DHT22;50720;54.324;18.558;2023-05-23T08:18:36;23.00;95.30
42913;DHT22;50720;54.324;18.558;2023-05-23T08:21:06;23.00;95.90
42913;DHT22;50720;54.324;18.558;2023-05-23T08:23:37;22.90;93.70
42913;DHT22;50720;54.324;18.558;2023-05-23T08:26:07;22.80;93.90
42913;DHT22;50720;54.324;18.558;2023-05-23T08:28:36;22.80;92.90
42913;DHT22;50720;54.324;18.558;2023-05-23T08:31:06;22.90;93.30
42913;DHT22;50720;54.324;18.558;2023-05-23T08:33:35;22.90;93.30
42913;DHT22;50720;54.324;18.558;2023-05-23T08:36:05;22.80;94.80
42913;DHT22;50720;54.324;18.558;2023-05-23T08:38:35;22.80;91.30
42913;DHT22;50720;54.324;18.558;2023-05-23T08:41:12;22.80;86.70
42913;DHT22;50720;54.324;18.558;2023-05-23T08:43:43;22.80;90.80
42913;DHT22;50720;54.324;18.558;2023-05-23T08:46:14;22.80;90.60
42913;DHT22;50720;54.324;18.558;2023-05-23T08:48:45;22.70;90.80
42913;DHT22;50720;54.324;18.558;2023-05-23T08:51:21;22.60;91.80
42913;DHT22;50720;54.324;18.558;2023-05-23T08:53:51;22.60;91.30
42913;DHT22;50720;54.324;18.558;2023-05-23T08:56:25;22.60;92.30
42913;DHT22;50720;54.324;18.558;2023-05-23T08:58:55;22.60;91.20
42913;DHT22;50720;54.324;18.558;2023-05-23T09:01:25;22.50;91.30
42913;DHT22;50720;54.324;18.558;2023-05-23T09:03:56;22.50;92.40
42913;DHT22;50720;54.324;18.558;2023-05-23T09:06:31;22.30;93.80
42913;DHT22;50720;54.324;18.558;2023-05-23T09:09:01;22.40;93.30
42913;DHT22;50720;54.324;18.558;2023-05-23T09:11:33;22.50;93.60
42913;DHT22;50720;54.324;18.558;2023-05-23T09:14:03;22.40;93.50
42913;DHT22;50720;54.324;18.558;2023-05-23T09:16:35;22.40;94.50
42913;DHT22;50720;54.324;18.558;2023-05-23T09:19:09;22.50;94.50
42913;DHT22;50720;54.324;18.558;2023-05-23T09:21:42;22.70;93.40
42913;DHT22;50720;54.324;18.558;2023-05-23T09:24:12;22.90;93.10
42913;DHT22;50720;54.324;18.558;2023-05-23T09:26:45;23.00;91.70
42913;DHT22;50720;54.324;18.558;2023-05-23T09:29:19;23.10;90.90
42913;DHT22;50720;54.324;18.558;2023-05-23T09:31:49;23.10;90.20
42913;DHT22;50720;54.324;18.558;2023-05-23T09:34:18;23.10;90.50
42913;DHT22;50720;54.324;18.558;2023-05-23T09:36:48;23.20;89.20
42913;DHT22;50720;54.324;18.558;2023-05-23T09:39:18;23.20;90.50
42913;DHT22;50720;54.324;18.558;2023-05-23T09:41:49;23.20;91.00
42913;DHT22;50720;54.324;18.558;2023-05-23T09:44:22;23.20;90.60
42913;DHT22;50720;54.324;18.558;2023-05-23T09:46:52;23.30;87.90
42913;DHT22;50720;54.324;18.558;2023-05-23T09:49:21;23.30;90.70
42913;DHT22;50720;54.324;18.558;2023-05-23T09:51:57;23.20;86.60
42913;DHT22;50720;54.324;18.558;2023-05-23T09:54:27;23.30;86.70
42913;DHT22;50720;54.324;18.558;2023-05-23T09:56:59;23.40;85.40
42913;DHT22;50720;54.324;18.558;2023-05-23T09:59:31;23.40;85.50
42913;DHT22;50720;54.324;18.558;2023-05-23T10:02:06;23.50;83.50
42913;DHT22;50720;54.324;18.558;2023-05-23T10:04:37;23.30;84.30
42913;DHT22;50720;54.324;18.558;2023-05-23T10:07:12;23.50;83.80
42913;DHT22;50720;54.324;18.558;2023-05-23T10:09:50;23.60;81.50
42913;DHT22;50720;54.324;18.558;2023-05-23T10:12:46;23.70;82.50
42913;DHT22;50720;54.324;18.558;2023-05-23T10:15:17;23.90;82.00
42913;DHT22;50720;54.324;18.558;2023-05-23T10:18:06;24.00;83.90
42913;DHT22;50720;54.324;18.558;2023-05-23T10:20:39;24.00;79.10
42913;DHT22;50720;54.324;18.558;2023-05-23T10:23:11;24.10;79.60
42913;DHT22;50720;54.324;18.558;2023-05-23T10:25:41;24.10;77.80
42913;DHT22;50720;54.324;18.558;2023-05-23T10:28:14;24.30;75.40
42913;DHT22;50720;54.324;18.558;2023-05-23T10:30:45;24.40;76.40
42913;DHT22;50720;54.324;18.558;2023-05-23T10:33:15;24.20;75.20
42913;DHT22;50720;54.324;18.558;2023-05-23T10:35:52;24.20;76.90
42913;DHT22;50720;54.324;18.558;2023-05-23T10:38:31;24.30;77.90
42913;DHT22;50720;54.324;18.558;2023-05-23T10:41:09;24.40;78.80
42913;DHT22;50720;54.324;18.558;2023-05-23T10:43:46;24.70;74.60
42913;DHT22;50720;54.324;18.558;2023-05-23T10:46:19;24.90;75.30
42913;DHT22;50720;54.324;18.558;2023-05-23T10:48:54;24.80;73.00
42913;DHT22;50720;54.324;18.558;2023-05-23T10:51:24;24.90;69.10
42913;DHT22;50720;54.324;18.558;2023-05-23T10:53:54;25.70;59.50
42913;DHT22;50720;54.324;18.558;2023-05-23T10:56:23;26.20;60.50
42913;DHT22;50720;54.324;18.558;2023-05-23T10:58:55;26.50;61.00
42913;DHT22;50720;54.324;18.558;2023-05-23T11:01:26;26.70;59.60
42913;DHT22;50720;54.324;18.558;2023-05-23T11:03:56;27.20;60.50
42913;DHT22;50720;54.324;18.558;2023-05-23T11:06:30;27.10;58.80
42913;DHT22;50720;54.324;18.558;2023-05-23T11:09:03;27.10;58.00
42913;DHT22;50720;54.324;18.558;2023-05-23T11:11:53;26.90;58.70
42913;DHT22;50720;54.324;18.558;2023-05-23T11:17:32;27.70;57.90
42913;DHT22;50720;54.324;18.558;2023-05-23T11:20:03;27.40;56.00
42913;DHT22;50720;54.324;18.558;2023-05-23T11:22:36;27.40;55.80
42913;DHT22;50720;54.324;18.558;2023-05-23T11:25:07;27.40;55.80
42913;DHT22;50720;54.324;18.558;2023-05-23T11:27:38;27.20;56.50
42913;DHT22;50720;54.324;18.558;2023-05-23T11:30:11;27.00;56.50
42913;DHT22;50720;54.324;18.558;2023-05-23T11:32:50;27.10;58.80
42913;DHT22;50720;54.324;18.558;2023-05-23T11:35:20;26.90;56.70
42913;DHT22;50720;54.324;18.558;2023-05-23T11:37:49;26.50;58.10
42913;DHT22;50720;54.324;18.558;2023-05-23T11:40:26;26.20;57.40
42913;DHT22;50720;54.324;18.558;2023-05-23T11:42:56;26.50;57.40
42913;DHT22;50720;54.324;18.558;2023-05-23T11:45:27;27.40;57.70
42913;DHT22;50720;54.324;18.558;2023-05-23T11:48:03;28.20;56.70
42913;DHT22;50720;54.324;18.558;2023-05-23T11:50:33;28.40;54.00
42913;DHT22;50720;54.324;18.558;2023-05-23T11:53:03;28.30;54.50
42913;DHT22;50720;54.324;18.558;2023-05-23T11:55:32;28.40;54.30
42913;DHT22;50720;54.324;18.558;2023-05-23T11:58:02;28.70;53.80
42913;DHT22;50720;54.324;18.558;2023-05-23T12:00:33;29.30;53.70
42913;DHT22;50720;54.324;18.558;2023-05-23T12:03:06;29.60;52.40
42913;DHT22;50720;54.324;18.558;2023-05-23T12:05:37;29.30;52.00
42913;DHT22;50720;54.324;18.558;2023-05-23T12:08:06;29.00;52.20
42913;DHT22;50720;54.324;18.558;2023-05-23T12:10:49;28.20;52.80
42913;DHT22;50720;54.324;18.558;2023-05-23T12:13:19;28.50;53.20
42913;DHT22;50720;54.324;18.558;2023-05-23T12:15:55;28.40;53.10
42913;DHT22;50720;54.324;18.558;2023-05-23T12:18:28;28.40;51.70
42913;DHT22;50720;54.324;18.558;2023-05-23T12:20:59;28.40;51.70
42913;DHT22;50720;54.324;18.558;2023-05-23T12:23:30;28.30;52.00
42913;DHT22;50720;54.324;18.558;2023-05-23T12:26:04;28.30;52.00
42913;DHT22;50720;54.324;18.558;2023-05-23T12:28:36;28.10;52.40
42913;DHT22;50720;54.324;18.558;2023-05-23T12:31:11;28.40;52.20
42913;DHT22;50720;54.324;18.558;2023-05-23T12:33:42;28.50;51.70
42913;DHT22;50720;54.324;18.558;2023-05-23T12:36:13;28.00;53.30
42913;DHT22;50720;54.324;18.558;2023-05-23T12:38:42;28.30;53.40
42913;DHT22;50720;54.324;18.558;2023-05-23T12:41:15;28.50;52.20
42913;DHT22;50720;54.324;18.558;2023-05-23T12:43:50;28.60;52.40
42913;DHT22;50720;54.324;18.558;2023-05-23T12:46:22;28.80;51.60
42913;DHT22;50720;54.324;18.558;2023-05-23T12:48:53;29.00;51.30
42913;DHT22;50720;54.324;18.558;2023-05-23T12:51:23;28.80;50.80
42913;DHT22;50720;54.324;18.558;2023-05-23T12:53:53;27.70;51.90
42913;DHT22;50720;54.324;18.558;2023-05-23T12:56:23;27.30;52.70
42913;DHT22;50720;54.324;18.558;2023-05-23T12:58:53;27.20;52.90
42913;DHT22;50720;54.324;18.558;2023-05-23T13:01:24;27.50;53.10
42913;DHT22;50720;54.324;18.558;2023-05-23T13:03:53;27.70;52.20
42913;DHT22;50720;54.324;18.558;2023-05-23T13:06:24;27.30;52.60
42913;DHT22;50720;54.324;18.558;2023-05-23T13:08:53;26.60;52.80
42913;DHT22;50720;54.324;18.558;2023-05-23T13:11:23;26.40;54.10
42913;DHT22;50720;54.324;18.558;2023-05-23T13:13:52;26.40;53.80
42913;DHT22;50720;54.324;18.558;2023-05-23T13:16:24;26.20;55.30
42913;DHT22;50720;54.324;18.558;2023-05-23T13:18:54;26.30;54.60
42913;DHT22;50720;54.324;18.558;2023-05-23T13:21:25;25.90;54.60
42913;DHT22;50720;54.324;18.558;2023-05-23T13:23:55;25.60;55.80
42913;DHT22;50720;54.324;18.558;2023-05-23T13:26:27;25.60;57.20
42913;DHT22;50720;54.324;18.558;2023-05-23T13:28:56;25.50;56.10
42913;DHT22;50720;54.324;18.558;2023-05-23T13:31:28;25.80;56.00
42913;DHT22;50720;54.324;18.558;2023-05-23T13:33:57;26.40;56.10
42913;DHT22;50720;54.324;18.558;2023-05-23T13:36:27;27.00;53.90
42913;DHT22;50720;54.324;18.558;2023-05-23T13:38:56;27.50;53.90
42913;DHT22;50720;54.324;18.558;2023-05-23T13:41:27;28.00;52.80
42913;DHT22;50720;54.324;18.558;2023-05-23T13:43:56;28.60;51.50
42913;DHT22;50720;54.324;18.558;2023-05-23T13:46:27;28.70;51.20
42913;DHT22;50720;54.324;18.558;2023-05-23T13:48:58;28.80;51.60
42913;DHT22;50720;54.324;18.558;2023-05-23T13:51:28;29.10;51.20
42913;DHT22;50720;54.324;18.558;2023-05-23T13:53:59;29.20;49.70
42913;DHT22;50720;54.324;18.558;2023-05-23T13:56:29;29.00;49.60
42913;DHT22;50720;54.324;18.558;2023-05-23T13:58:58;28.60;49.30
42913;DHT22;50720;54.324;18.558;2023-05-23T14:01:30;28.00;49.40
42913;DHT22;50720;54.324;18.558;2023-05-23T14:03:59;27.30;50.70
42913;DHT22;50720;54.324;18.558;2023-05-23T14:06:31;27.40;50.70
42913;DHT22;50720;54.324;18.558;2023-05-23T14:09:00;27.60;51.20
42913;DHT22;50720;54.324;18.558;2023-05-23T14:11:30;27.40;50.10
42913;DHT22;50720;54.324;18.558;2023-05-23T14:13:59;27.70;50.50
42913;DHT22;50720;54.324;18.558;2023-05-23T14:16:31;27.80;50.20
42913;DHT22;50720;54.324;18.558;2023-05-23T14:19:00;27.70;50.60
42913;DHT22;50720;54.324;18.558;2023-05-23T14:21:30;27.30;51.40
42913;DHT22;50720;54.324;18.558;2023-05-23T14:24:00;27.20;50.60
42913;DHT22;50720;54.324;18.558;2023-05-23T14:26:29;27.10;50.80
42913;DHT22;50720;54.324;18.558;2023-05-23T14:28:59;27.00;51.10
42913;DHT22;50720;54.324;18.558;2023-05-23T14:31:30;27.10;52.20
42913;DHT22;50720;54.324;18.558;2023-05-23T14:34:00;27.40;51.00
42913;DHT22;50720;54.324;18.558;2023-05-23T14:36:29;27.80;50.70
42913;DHT22;50720;54.324;18.558;2023-05-23T14:38:59;27.60;50.10
42913;DHT22;50720;54.324;18.558;2023-05-23T14:41:31;27.90;49.90
42913;DHT22;50720;54.324;18.558;2023-05-23T14:44:00;27.80;50.20
42913;DHT22;50720;54.324;18.558;2023-05-23T14:46:31;27.60;49.80
42913;DHT22;50720;54.324;18.558;2023-05-23T14:49:01;27.90;50.30
42913;DHT22;50720;54.324;18.558;2023-05-23T14:51:30;28.20;50.80
42913;DHT22;50720;54.324;18.558;2023-05-23T14:54:15;28.00;50.60
42913;DHT22;50720;54.324;18.558;2023-05-23T14:56:45;27.70;50.60
42913;DHT22;50720;54.324;18.558;2023-05-23T14:59:16;27.30;50.10
42913;DHT22;50720;54.324;18.558;2023-05-23T15:01:47;27.10;50.60
42913;DHT22;50720;54.324;18.558;2023-05-23T15:04:17;26.80;51.10
42913;DHT22;50720;54.324;18.558;2023-05-23T15:06:47;26.70;52.60
42913;DHT22;50720;54.324;18.558;2023-05-23T15:09:17;26.30;52.30
42913;DHT22;50720;54.324;18.558;2023-05-23T15:11:47;26.30;54.50
42913;DHT22;50720;54.324;18.558;2023-05-23T15:14:17;26.30;52.60
42913;DHT22;50720;54.324;18.558;2023-05-23T15:16:48;26.40;51.70
42913;DHT22;50720;54.324;18.558;2023-05-23T15:19:18;26.30;51.80
42913;DHT22;50720;54.324;18.558;2023-05-23T15:21:48;26.50;58.60
42913;DHT22;50720;54.324;18.558;2023-05-23T15:24:18;26.50;60.40
42913;DHT22;50720;54.324;18.558;2023-05-23T15:26:48;26.30;60.30
42913;DHT22;50720;54.324;18.558;2023-05-23T15:29:18;26.40;60.90
42913;DHT22;50720;54.324;18.558;2023-05-23T15:31:49;26.50;61.30
42913;DHT22;50720;54.324;18.558;2023-05-23T15:34:18;26.20;61.30
42913;DHT22;50720;54.324;18.558;2023-05-23T15:36:48;26.00;61.90
42913;DHT22;50720;54.324;18.558;2023-05-23T15:39:18;25.90;62.20
42913;DHT22;50720;54.324;18.558;2023-05-23T15:41:47;25.90;61.30